createdAt,value
2019-02-27T00:03:28.949Z,22.70
2019-02-27T00:08:32.465Z,22.70
2019-02-27T00:13:38.594Z,22.70
2019-02-27T00:18:44.981Z,22.70
2019-02-27T00:23:51.189Z,22.70
2019-02-27T00:28:56.900Z,22.70
2019-02-27T00:34:03.188Z,22.60
2019-02-27T00:39:08.665Z,22.70
2019-02-27T00:44:14.328Z,22.60
2019-02-27T00:49:20.296Z,22.60
2019-02-27T00:54:29.035Z,22.60
2019-02-27T00:59:35.186Z,22.60
2019-02-27T01:04:41.695Z,22.60
2019-02-27T01:09:48.446Z,22.60
2019-02-27T01:14:54.095Z,22.60
2019-02-27T01:20:00.627Z,22.60
2019-02-27T01:25:06.259Z,22.60
2019-02-27T01:30:13.727Z,22.50
2019-02-27T01:35:20.325Z,22.50
2019-02-27T01:40:26.534Z,22.50
2019-02-27T01:45:32.620Z,22.50
2019-02-27T01:50:43.294Z,22.50
2019-02-27T01:55:49.494Z,22.50
2019-02-27T02:00:56.257Z,22.40
2019-02-27T02:06:02.614Z,22.40
2019-02-27T02:11:08.544Z,22.40
2019-02-27T02:16:40.174Z,22.40
2019-02-27T02:22:15.965Z,22.40
2019-02-27T02:27:41.444Z,22.40
2019-02-27T02:33:30.190Z,22.40
2019-02-27T02:39:21.346Z,22.40
2019-02-27T02:45:07.839Z,22.30
2019-02-27T02:51:06.921Z,22.30
2019-02-27T02:56:35.314Z,22.30
2019-02-27T03:02:09.534Z,22.30
2019-02-27T03:07:53.221Z,22.30
2019-02-27T03:13:41.599Z,22.30
2019-02-27T03:18:52.825Z,22.20
2019-02-27T03:24:27.874Z,22.30
2019-02-27T03:29:53.881Z,22.20
2019-02-27T03:35:36.419Z,22.20
2019-02-27T03:41:34.144Z,22.20
2019-02-27T03:47:16.685Z,22.20
2019-02-27T03:52:54.284Z,22.20
2019-02-27T03:58:32.915Z,22.20
2019-02-27T04:04:18.943Z,22.20
2019-02-27T04:09:25.455Z,22.10
2019-02-27T04:14:40.412Z,22.10
2019-02-27T04:19:43.294Z,22.10
2019-02-27T04:24:49.265Z,22.10
2019-02-27T04:29:55.814Z,22.10
2019-02-27T04:35:05.909Z,22.00
2019-02-27T04:40:11.184Z,22.00
2019-02-27T04:45:17.674Z,22.00
2019-02-27T04:50:24.055Z,22.00
2019-02-27T04:55:30.666Z,22.00
2019-02-27T05:00:37.103Z,22.00
2019-02-27T05:05:43.864Z,21.90
2019-02-27T05:10:50.133Z,21.90
2019-02-27T05:15:55.764Z,21.90
2019-02-27T05:21:01.613Z,21.90
2019-02-27T05:26:07.836Z,21.90
2019-02-27T05:31:18.310Z,21.90
2019-02-27T05:36:22.124Z,21.90
2019-02-27T05:41:32.850Z,21.90
2019-02-27T05:46:38.424Z,21.90
2019-02-27T05:51:43.890Z,21.90
2019-02-27T05:56:50.351Z,21.80
2019-02-27T06:01:56.107Z,21.80
2019-02-27T06:07:02.153Z,21.80
2019-02-27T06:12:09.817Z,21.80
2019-02-27T06:17:15.234Z,21.80
2019-02-27T06:22:21.353Z,21.80
2019-02-27T06:27:27.654Z,21.80
2019-02-27T06:32:33.634Z,21.70
2019-02-27T06:37:40.108Z,21.70
2019-02-27T06:42:46.713Z,21.70
2019-02-27T06:47:52.614Z,21.70
2019-02-27T06:52:58.253Z,21.70
2019-02-27T06:58:04.895Z,21.70
2019-02-27T07:03:11.154Z,21.70
2019-02-27T07:08:17.733Z,21.70
2019-02-27T07:13:26.797Z,21.80
2019-02-27T07:18:32.485Z,21.80
2019-02-27T07:23:38.513Z,21.80
2019-02-27T07:28:44.149Z,21.80
2019-02-27T07:33:52.129Z,21.70
2019-02-27T07:38:58.288Z,21.70
2019-02-27T07:44:05.163Z,21.70
2019-02-27T07:49:11.434Z,21.70
2019-02-27T07:54:17.677Z,21.70
2019-02-27T07:59:24.822Z,21.70
2019-02-27T08:04:31.304Z,21.70
2019-02-27T08:09:37.993Z,21.70
2019-02-27T08:14:44.367Z,21.80
2019-02-27T08:19:50.277Z,21.80
2019-02-27T08:24:55.684Z,21.80
2019-02-27T08:30:01.719Z,21.80
2019-02-27T08:35:07.614Z,21.80
2019-02-27T08:40:14.336Z,21.80
2019-02-27T08:45:20.818Z,21.90
2019-02-27T08:50:29.270Z,21.80
2019-02-27T08:55:38.965Z,21.90
2019-02-27T09:00:47.089Z,21.90
2019-02-27T09:05:51.029Z,21.90
2019-02-27T09:10:58.988Z,21.90
2019-02-27T09:16:05.374Z,21.90
2019-02-27T09:21:11.824Z,21.90
2019-02-27T09:26:19.143Z,22.00
2019-02-27T09:31:25.654Z,21.90
2019-02-27T09:36:32.499Z,22.00
2019-02-27T09:41:38.924Z,22.00
2019-02-27T09:46:45.794Z,22.00
2019-02-27T09:51:55.914Z,22.00
2019-02-27T09:57:02.376Z,22.00
2019-02-27T10:02:09.305Z,22.10
2019-02-27T10:07:17.084Z,22.10
2019-02-27T10:12:27.126Z,22.10
2019-02-27T10:17:30.514Z,22.10
2019-02-27T10:22:37.063Z,22.10
2019-02-27T10:27:43.534Z,22.20
2019-02-27T10:32:49.297Z,22.20
2019-02-27T10:37:55.800Z,22.20
2019-02-27T10:43:03.474Z,22.20
2019-02-27T10:48:12.585Z,22.20
2019-02-27T10:53:18.659Z,22.20
2019-02-27T10:58:24.741Z,22.30
2019-02-27T11:03:30.978Z,22.30
2019-02-27T11:08:37.294Z,22.30
2019-02-27T11:13:43.744Z,22.30
2019-02-27T11:18:50.224Z,22.30
2019-02-27T11:24:17.316Z,22.30
2019-02-27T11:29:23.851Z,22.30
2019-02-27T11:34:29.974Z,22.30
2019-02-27T11:39:54.624Z,22.30
2019-02-27T11:45:00.474Z,22.40
2019-02-27T11:50:07.964Z,22.40
2019-02-27T11:55:15.667Z,22.40
2019-02-27T12:00:29.694Z,22.40
2019-02-27T12:05:36.504Z,22.40
2019-02-27T12:10:42.274Z,22.40
2019-02-27T12:15:48.254Z,22.40
2019-02-27T12:20:54.684Z,22.40
2019-02-27T12:26:02.503Z,22.40
2019-02-27T12:31:10.945Z,22.40
2019-02-27T12:36:18.714Z,22.40
2019-02-27T12:41:24.163Z,22.40
2019-02-27T12:46:33.784Z,22.40
2019-02-27T12:51:38.304Z,22.40
2019-02-27T12:56:44.833Z,22.50
2019-02-27T13:01:51.887Z,22.50
2019-02-27T13:06:58.170Z,22.50
2019-02-27T13:12:04.326Z,22.50
2019-02-27T13:17:10.443Z,22.50
2019-02-27T13:22:16.764Z,22.50
2019-02-27T13:27:22.603Z,22.50
2019-02-27T13:32:28.316Z,22.50
2019-02-27T13:37:34.193Z,22.50
2019-02-27T13:42:42.163Z,22.60
2019-02-27T13:47:48.623Z,22.50
2019-02-27T13:52:54.415Z,22.50
2019-02-27T13:58:03.591Z,22.60
2019-02-27T14:03:12.184Z,22.60
2019-02-27T14:08:16.772Z,22.60
2019-02-27T14:13:22.623Z,22.60
2019-02-27T14:18:29.077Z,22.60
2019-02-27T14:23:35.574Z,22.60
2019-02-27T14:28:42.013Z,22.60
2019-02-27T14:33:51.302Z,22.60
2019-02-27T14:38:57.445Z,22.60
2019-02-27T14:44:03.875Z,22.60
2019-02-27T14:49:09.655Z,22.60
2019-02-27T14:54:17.734Z,22.60
2019-02-27T14:59:24.127Z,22.70
2019-02-27T15:04:32.290Z,22.70
2019-02-27T15:09:47.602Z,22.70
2019-02-27T15:14:47.434Z,22.70
2019-02-27T15:19:54.025Z,22.70
2019-02-27T15:25:00.533Z,22.70
2019-02-27T15:30:07.904Z,22.70
2019-02-27T15:35:15.519Z,22.80
2019-02-27T15:40:22.233Z,22.80
2019-02-27T15:45:28.775Z,22.70
2019-02-27T15:50:35.324Z,22.80
2019-02-27T15:55:41.653Z,22.80
2019-02-27T16:00:52.169Z,22.80
2019-02-27T16:05:57.533Z,22.80
2019-02-27T16:11:04.300Z,22.80
2019-02-27T16:16:10.372Z,22.80
2019-02-27T16:21:16.633Z,22.90
2019-02-27T16:26:26.944Z,22.80
2019-02-27T16:31:30.416Z,22.80
2019-02-27T16:36:36.863Z,22.90
2019-02-27T16:41:44.963Z,22.90
2019-02-27T16:46:50.505Z,22.90
2019-02-27T16:51:57.704Z,22.90
2019-02-27T16:57:03.560Z,22.90
2019-02-27T17:02:09.354Z,22.90
2019-02-27T17:07:14.934Z,22.90
2019-02-27T17:12:20.734Z,22.90
2019-02-27T17:17:26.987Z,22.90
2019-02-27T17:22:33.927Z,22.80
2019-02-27T17:27:40.216Z,22.80
2019-02-27T17:32:46.214Z,22.80
2019-02-27T17:37:52.284Z,22.80
2019-02-27T17:42:58.059Z,22.80
2019-02-27T17:48:04.317Z,22.80
2019-02-27T17:53:10.643Z,22.90
2019-02-27T17:58:17.205Z,22.90
2019-02-27T18:03:24.971Z,22.90
2019-02-27T18:08:31.284Z,22.90
2019-02-27T18:13:37.984Z,22.90
2019-02-27T18:18:44.087Z,22.90
2019-02-27T18:23:50.538Z,22.90
2019-02-27T18:28:56.823Z,22.90
2019-02-27T18:34:03.054Z,23.00
2019-02-27T18:39:09.544Z,23.00
2019-02-27T18:44:15.295Z,23.00
2019-02-27T18:49:21.124Z,23.00
2019-02-27T18:54:26.454Z,23.00
2019-02-27T18:59:32.395Z,23.00
2019-02-27T19:04:39.215Z,23.00
2019-02-27T19:09:47.014Z,23.00
2019-02-27T19:14:52.885Z,23.00
2019-02-27T19:19:58.796Z,23.10
2019-02-27T19:25:05.266Z,23.00
2019-02-27T19:30:13.205Z,23.10
2019-02-27T19:35:21.667Z,23.10
2019-02-27T19:40:29.883Z,23.10
2019-02-27T19:45:35.955Z,23.10
2019-02-27T19:51:01.876Z,23.10
2019-02-27T19:56:08.225Z,23.10
2019-02-27T20:01:14.891Z,23.10
2019-02-27T20:06:24.603Z,23.10
2019-02-27T20:11:31.086Z,23.10
2019-02-27T20:16:38.612Z,23.10
2019-02-27T20:21:45.134Z,23.10
2019-02-27T20:26:54.252Z,23.10
2019-02-27T20:31:58.993Z,23.10
2019-02-27T20:37:06.286Z,23.10
2019-02-27T20:42:14.455Z,23.10
2019-02-27T20:47:21.983Z,23.20
2019-02-27T20:52:28.974Z,23.10
2019-02-27T20:57:35.214Z,23.20
2019-02-27T21:02:40.936Z,23.10
2019-02-27T21:07:46.976Z,23.20
2019-02-27T21:12:54.291Z,23.20
2019-02-27T21:18:01.248Z,23.20
2019-02-27T21:23:09.219Z,23.10
2019-02-27T21:28:20.999Z,23.10
2019-02-27T21:33:22.716Z,23.10
2019-02-27T21:38:50.242Z,23.10
2019-02-27T21:43:56.613Z,23.10
2019-02-27T21:49:02.331Z,23.10
2019-02-27T21:54:08.414Z,23.10
2019-02-27T21:59:14.834Z,23.10
2019-02-27T22:04:20.339Z,23.10
2019-02-27T22:09:28.165Z,23.10
2019-02-27T22:14:35.206Z,23.10
2019-02-27T22:19:41.093Z,23.10
2019-02-27T22:24:47.270Z,23.10
2019-02-27T22:29:53.265Z,23.10
2019-02-27T22:35:02.803Z,23.10
2019-02-27T22:40:08.176Z,23.00
2019-02-27T22:45:14.570Z,23.10
2019-02-27T22:50:20.890Z,23.10
2019-02-27T22:55:26.085Z,23.10
2019-02-27T23:01:08.671Z,23.00
2019-02-27T23:06:14.734Z,23.10
2019-02-27T23:11:21.334Z,23.10
2019-02-27T23:16:29.767Z,23.00
2019-02-27T23:21:36.325Z,23.00
2019-02-27T23:26:42.950Z,23.10
2019-02-27T23:31:49.321Z,23.00
2019-02-27T23:36:55.810Z,23.00
2019-02-27T23:42:02.993Z,23.00
2019-02-27T23:47:09.985Z,23.00
2019-02-27T23:52:16.388Z,22.90
2019-02-27T23:57:23.602Z,22.90
